sensor_id;sensor_type;location;lat;lon;timestamp;P1;durP1;ratioP1;P2;durP2;ratioP2
63801;SDS011;49949;43.060;25.624;2022-07-17T00:00:13;11.15;;;6.03;;
63801;SDS011;49949;43.060;25.624;2022-07-17T00:02:39;12.40;;;5.88;;
63801;SDS011;49949;43.060;25.624;2022-07-17T00:05:06;10.93;;;5.78;;
63801;SDS011;49949;43.060;25.624;2022-07-17T00:07:32;12.23;;;5.43;;
63801;SDS011;49949;43.060;25.624;2022-07-17T00:09:57;9.57;;;5.60;;
63801;SDS011;49949;43.060;25.624;2022-07-17T00:12:23;16.75;;;6.15;;
63801;SDS011;49949;43.060;25.624;2022-07-17T00:14:49;16.95;;;5.93;;
63801;SDS011;49949;43.060;25.624;2022-07-17T00:17:15;9.80;;;5.35;;
63801;SDS011;49949;43.060;25.624;2022-07-17T00:19:41;14.38;;;5.80;;
63801;SDS011;49949;43.060;25.624;2022-07-17T00:22:08;12.68;;;5.63;;
63801;SDS011;49949;43.060;25.624;2022-07-17T00:24:34;13.48;;;6.20;;
63801;SDS011;49949;43.060;25.624;2022-07-17T00:26:59;13.18;;;8.35;;
63801;SDS011;49949;43.060;25.624;2022-07-17T00:29:25;19.35;;;7.25;;
63801;SDS011;49949;43.060;25.624;2022-07-17T00:31:51;11.55;;;6.10;;
63801;SDS011;49949;43.060;25.624;2022-07-17T00:34:17;17.33;;;6.53;;
63801;SDS011;49949;43.060;25.624;2022-07-17T00:36:43;16.35;;;5.85;;
63801;SDS011;49949;43.060;25.624;2022-07-17T00:39:08;10.02;;;6.35;;
63801;SDS011;49949;43.060;25.624;2022-07-17T00:41:34;10.82;;;6.50;;
63801;SDS011;49949;43.060;25.624;2022-07-17T00:44:03;12.60;;;7.97;;
63801;SDS011;49949;43.060;25.624;2022-07-17T00:46:37;16.20;;;7.63;;
63801;SDS011;49949;43.060;25.624;2022-07-17T00:49:03;13.20;;;7.10;;
63801;SDS011;49949;43.060;25.624;2022-07-17T00:51:30;13.60;;;6.80;;
63801;SDS011;49949;43.060;25.624;2022-07-17T00:53:57;14.20;;;6.72;;
63801;SDS011;49949;43.060;25.624;2022-07-17T00:56:24;11.10;;;6.53;;
63801;SDS011;49949;43.060;25.624;2022-07-17T00:58:50;12.15;;;6.90;;
63801;SDS011;49949;43.060;25.624;2022-07-17T01:01:16;8.98;;;6.70;;
63801;SDS011;49949;43.060;25.624;2022-07-17T01:03:42;9.27;;;5.80;;
63801;SDS011;49949;43.060;25.624;2022-07-17T01:06:08;10.80;;;7.05;;
63801;SDS011;49949;43.060;25.624;2022-07-17T01:08:34;10.48;;;7.15;;
63801;SDS011;49949;43.060;25.624;2022-07-17T01:11:01;12.70;;;7.03;;
63801;SDS011;49949;43.060;25.624;2022-07-17T01:13:27;9.80;;;7.10;;
63801;SDS011;49949;43.060;25.624;2022-07-17T01:15:53;18.35;;;7.90;;
63801;SDS011;49949;43.060;25.624;2022-07-17T01:18:19;15.60;;;6.97;;
63801;SDS011;49949;43.060;25.624;2022-07-17T01:20:46;10.57;;;8.00;;
63801;SDS011;49949;43.060;25.624;2022-07-17T01:23:14;19.23;;;7.95;;
63801;SDS011;49949;43.060;25.624;2022-07-17T01:25:41;18.48;;;8.13;;
63801;SDS011;49949;43.060;25.624;2022-07-17T01:28:08;18.33;;;7.90;;
63801;SDS011;49949;43.060;25.624;2022-07-17T01:30:34;15.02;;;8.20;;
63801;SDS011;49949;43.060;25.624;2022-07-17T01:33:00;14.13;;;7.68;;
63801;SDS011;49949;43.060;25.624;2022-07-17T01:35:27;13.98;;;8.82;;
63801;SDS011;49949;43.060;25.624;2022-07-17T01:37:53;18.05;;;9.35;;
63801;SDS011;49949;43.060;25.624;2022-07-17T01:40:19;18.92;;;8.65;;
63801;SDS011;49949;43.060;25.624;2022-07-17T01:42:45;11.50;;;7.55;;
63801;SDS011;49949;43.060;25.624;2022-07-17T01:45:13;13.48;;;8.63;;
63801;SDS011;49949;43.060;25.624;2022-07-17T01:47:40;20.15;;;9.50;;
63801;SDS011;49949;43.060;25.624;2022-07-17T01:50:06;13.23;;;9.18;;
63801;SDS011;49949;43.060;25.624;2022-07-17T01:52:35;19.83;;;9.35;;
63801;SDS011;49949;43.060;25.624;2022-07-17T01:55:06;17.38;;;8.85;;
63801;SDS011;49949;43.060;25.624;2022-07-17T01:57:33;16.70;;;8.68;;
63801;SDS011;49949;43.060;25.624;2022-07-17T01:59:59;17.38;;;9.18;;
63801;SDS011;49949;43.060;25.624;2022-07-17T02:02:25;13.68;;;9.77;;
63801;SDS011;49949;43.060;25.624;2022-07-17T02:04:51;21.45;;;10.45;;
63801;SDS011;49949;43.060;25.624;2022-07-17T02:07:17;21.15;;;10.20;;
63801;SDS011;49949;43.060;25.624;2022-07-17T02:09:43;17.50;;;9.45;;
63801;SDS011;49949;43.060;25.624;2022-07-17T02:12:08;24.27;;;9.65;;
63801;SDS011;49949;43.060;25.624;2022-07-17T02:14:34;24.80;;;9.30;;
63801;SDS011;49949;43.060;25.624;2022-07-17T02:17:00;19.48;;;10.60;;
63801;SDS011;49949;43.060;25.624;2022-07-17T02:19:26;22.05;;;10.25;;
63801;SDS011;49949;43.060;25.624;2022-07-17T02:21:52;17.73;;;9.55;;
63801;SDS011;49949;43.060;25.624;2022-07-17T02:24:18;14.48;;;9.95;;
63801;SDS011;49949;43.060;25.624;2022-07-17T02:26:44;19.27;;;10.30;;
63801;SDS011;49949;43.060;25.624;2022-07-17T02:29:09;13.50;;;8.82;;
63801;SDS011;49949;43.060;25.624;2022-07-17T02:31:35;19.55;;;10.27;;
63801;SDS011;49949;43.060;25.624;2022-07-17T02:34:01;19.40;;;10.07;;
63801;SDS011;49949;43.060;25.624;2022-07-17T02:36:26;17.75;;;9.80;;
63801;SDS011;49949;43.060;25.624;2022-07-17T02:38:52;16.05;;;10.63;;
63801;SDS011;49949;43.060;25.624;2022-07-17T02:41:18;14.43;;;9.55;;
63801;SDS011;49949;43.060;25.624;2022-07-17T02:43:44;17.35;;;10.32;;
63801;SDS011;49949;43.060;25.624;2022-07-17T02:46:10;12.07;;;7.82;;
63801;SDS011;49949;43.060;25.624;2022-07-17T02:48:36;15.30;;;8.52;;
63801;SDS011;49949;43.060;25.624;2022-07-17T02:51:01;16.13;;;10.02;;
63801;SDS011;49949;43.060;25.624;2022-07-17T02:53:27;30.17;;;19.98;;
63801;SDS011;49949;43.060;25.624;2022-07-17T02:55:53;16.45;;;9.95;;
63801;SDS011;49949;43.060;25.624;2022-07-17T02:58:18;20.02;;;9.65;;
63801;SDS011;49949;43.060;25.624;2022-07-17T03:00:44;20.10;;;9.65;;
63801;SDS011;49949;43.060;25.624;2022-07-17T03:03:10;15.90;;;9.25;;
63801;SDS011;49949;43.060;25.624;2022-07-17T03:05:35;13.90;;;9.32;;
63801;SDS011;49949;43.060;25.624;2022-07-17T03:08:01;20.13;;;12.07;;
63801;SDS011;49949;43.060;25.624;2022-07-17T03:10:27;16.35;;;9.63;;
63801;SDS011;49949;43.060;25.624;2022-07-17T03:12:53;19.55;;;9.38;;
63801;SDS011;49949;43.060;25.624;2022-07-17T03:15:18;19.33;;;10.43;;
63801;SDS011;49949;43.060;25.624;2022-07-17T03:17:44;18.10;;;9.18;;
63801;SDS011;49949;43.060;25.624;2022-07-17T03:20:10;19.67;;;10.30;;
63801;SDS011;49949;43.060;25.624;2022-07-17T03:22:36;85.63;;;13.05;;
63801;SDS011;49949;43.060;25.624;2022-07-17T03:25:02;19.50;;;9.98;;
63801;SDS011;49949;43.060;25.624;2022-07-17T03:27:27;18.00;;;9.00;;
63801;SDS011;49949;43.060;25.624;2022-07-17T03:29:53;13.98;;;9.13;;
63801;SDS011;49949;43.060;25.624;2022-07-17T03:32:19;18.20;;;9.30;;
63801;SDS011;49949;43.060;25.624;2022-07-17T03:34:45;14.00;;;7.80;;
63801;SDS011;49949;43.060;25.624;2022-07-17T03:37:12;14.88;;;8.30;;
63801;SDS011;49949;43.060;25.624;2022-07-17T03:39:38;15.63;;;7.93;;
63801;SDS011;49949;43.060;25.624;2022-07-17T03:42:04;14.82;;;8.65;;
63801;SDS011;49949;43.060;25.624;2022-07-17T03:44:30;12.60;;;7.95;;
63801;SDS011;49949;43.060;25.624;2022-07-17T03:46:56;15.02;;;7.38;;
63801;SDS011;49949;43.060;25.624;2022-07-17T03:49:21;19.42;;;8.57;;
63801;SDS011;49949;43.060;25.624;2022-07-17T03:51:47;20.38;;;7.30;;
63801;SDS011;49949;43.060;25.624;2022-07-17T03:54:13;19.75;;;6.90;;
63801;SDS011;49949;43.060;25.624;2022-07-17T03:56:39;17.52;;;7.00;;
63801;SDS011;49949;43.060;25.624;2022-07-17T03:59:05;12.57;;;6.68;;
63801;SDS011;49949;43.060;25.624;2022-07-17T04:01:30;8.27;;;5.63;;
63801;SDS011;49949;43.060;25.624;2022-07-17T04:03:56;15.30;;;6.97;;
63801;SDS011;49949;43.060;25.624;2022-07-17T04:06:22;9.75;;;5.95;;
63801;SDS011;49949;43.060;25.624;2022-07-17T04:08:47;11.60;;;5.72;;
63801;SDS011;49949;43.060;25.624;2022-07-17T04:11:13;11.13;;;5.63;;
63801;SDS011;49949;43.060;25.624;2022-07-17T04:13:39;12.30;;;5.32;;
63801;SDS011;49949;43.060;25.624;2022-07-17T04:16:04;15.52;;;6.20;;
63801;SDS011;49949;43.060;25.624;2022-07-17T04:18:33;12.18;;;4.88;;
63801;SDS011;49949;43.060;25.624;2022-07-17T04:21:02;13.50;;;5.18;;
63801;SDS011;49949;43.060;25.624;2022-07-17T04:23:32;9.70;;;5.23;;
63801;SDS011;49949;43.060;25.624;2022-07-17T04:25:58;10.93;;;5.78;;
63801;SDS011;49949;43.060;25.624;2022-07-17T04:28:24;13.93;;;5.93;;
63801;SDS011;49949;43.060;25.624;2022-07-17T04:30:50;13.02;;;5.63;;
63801;SDS011;49949;43.060;25.624;2022-07-17T04:33:16;9.15;;;5.00;;
63801;SDS011;49949;43.060;25.624;2022-07-17T04:35:42;20.42;;;5.07;;
63801;SDS011;49949;43.060;25.624;2022-07-17T04:38:08;12.57;;;3.15;;
63801;SDS011;49949;43.060;25.624;2022-07-17T04:40:34;42.53;;;4.28;;
63801;SDS011;49949;43.060;25.624;2022-07-17T04:43:01;15.57;;;3.20;;
63801;SDS011;49949;43.060;25.624;2022-07-17T04:45:27;53.20;;;6.28;;
63801;SDS011;49949;43.060;25.624;2022-07-17T04:47:53;14.52;;;2.92;;
63801;SDS011;49949;43.060;25.624;2022-07-17T04:50:19;8.55;;;2.28;;
63801;SDS011;49949;43.060;25.624;2022-07-17T04:52:45;7.88;;;2.25;;
63801;SDS011;49949;43.060;25.624;2022-07-17T04:55:11;23.55;;;3.10;;
63801;SDS011;49949;43.060;25.624;2022-07-17T04:57:38;20.33;;;3.17;;
63801;SDS011;49949;43.060;25.624;2022-07-17T05:00:05;35.38;;;3.70;;
63801;SDS011;49949;43.060;25.624;2022-07-17T05:02:32;8.57;;;2.20;;
63801;SDS011;49949;43.060;25.624;2022-07-17T05:04:58;22.17;;;3.28;;
63801;SDS011;49949;43.060;25.624;2022-07-17T05:07:24;19.13;;;3.25;;
63801;SDS011;49949;43.060;25.624;2022-07-17T05:09:50;20.83;;;3.17;;
63801;SDS011;49949;43.060;25.624;2022-07-17T05:12:16;38.03;;;3.65;;
63801;SDS011;49949;43.060;25.624;2022-07-17T05:14:41;16.30;;;3.45;;
63801;SDS011;49949;43.060;25.624;2022-07-17T05:17:07;53.28;;;4.57;;
63801;SDS011;49949;43.060;25.624;2022-07-17T05:19:33;10.23;;;2.97;;
63801;SDS011;49949;43.060;25.624;2022-07-17T05:22:00;26.38;;;3.40;;
63801;SDS011;49949;43.060;25.624;2022-07-17T05:24:26;13.15;;;2.50;;
63801;SDS011;49949;43.060;25.624;2022-07-17T05:26:51;12.75;;;2.38;;
63801;SDS011;49949;43.060;25.624;2022-07-17T05:29:17;12.35;;;2.55;;
63801;SDS011;49949;43.060;25.624;2022-07-17T05:31:43;11.50;;;2.70;;
63801;SDS011;49949;43.060;25.624;2022-07-17T05:34:09;9.10;;;1.70;;
63801;SDS011;49949;43.060;25.624;2022-07-17T05:36:34;18.80;;;2.67;;
63801;SDS011;49949;43.060;25.624;2022-07-17T05:39:00;29.15;;;3.13;;
63801;SDS011;49949;43.060;25.624;2022-07-17T05:41:26;8.27;;;2.88;;
63801;SDS011;49949;43.060;25.624;2022-07-17T05:43:51;60.40;;;5.07;;
63801;SDS011;49949;43.060;25.624;2022-07-17T05:46:17;30.48;;;3.15;;
63801;SDS011;49949;43.060;25.624;2022-07-17T05:48:43;14.45;;;2.38;;
63801;SDS011;49949;43.060;25.624;2022-07-17T05:51:08;15.55;;;2.50;;
63801;SDS011;49949;43.060;25.624;2022-07-17T05:53:34;72.32;;;5.22;;
63801;SDS011;49949;43.060;25.624;2022-07-17T05:56:00;67.07;;;4.40;;
63801;SDS011;49949;43.060;25.624;2022-07-17T05:58:26;20.95;;;2.53;;
63801;SDS011;49949;43.060;25.624;2022-07-17T06:00:51;12.38;;;2.30;;
63801;SDS011;49949;43.060;25.624;2022-07-17T06:03:18;19.70;;;2.22;;
63801;SDS011;49949;43.060;25.624;2022-07-17T06:05:44;11.07;;;2.28;;
63801;SDS011;49949;43.060;25.624;2022-07-17T06:08:10;14.48;;;2.47;;
63801;SDS011;49949;43.060;25.624;2022-07-17T06:10:36;36.30;;;4.05;;
63801;SDS011;49949;43.060;25.624;2022-07-17T06:13:03;16.50;;;3.00;;
63801;SDS011;49949;43.060;25.624;2022-07-17T06:15:29;30.90;;;3.88;;
63801;SDS011;49949;43.060;25.624;2022-07-17T06:17:55;32.00;;;3.17;;
63801;SDS011;49949;43.060;25.624;2022-07-17T06:20:28;24.95;;;3.63;;
63801;SDS011;49949;43.060;25.624;2022-07-17T06:22:54;14.35;;;2.45;;
63801;SDS011;49949;43.060;25.624;2022-07-17T06:25:20;7.30;;;2.10;;
63801;SDS011;49949;43.060;25.624;2022-07-17T06:27:46;22.88;;;2.75;;
63801;SDS011;49949;43.060;25.624;2022-07-17T06:30:12;27.63;;;2.45;;
63801;SDS011;49949;43.060;25.624;2022-07-17T06:32:39;32.95;;;4.07;;
63801;SDS011;49949;43.060;25.624;2022-07-17T06:35:06;42.10;;;4.28;;
63801;SDS011;49949;43.060;25.624;2022-07-17T06:37:32;11.60;;;2.75;;
63801;SDS011;49949;43.060;25.624;2022-07-17T06:39:58;6.40;;;2.03;;
63801;SDS011;49949;43.060;25.624;2022-07-17T06:42:24;11.23;;;1.92;;
63801;SDS011;49949;43.060;25.624;2022-07-17T06:44:49;5.28;;;1.65;;
63801;SDS011;49949;43.060;25.624;2022-07-17T06:47:15;23.50;;;2.70;;
63801;SDS011;49949;43.060;25.624;2022-07-17T06:49:41;20.95;;;2.40;;
63801;SDS011;49949;43.060;25.624;2022-07-17T06:52:06;17.35;;;2.65;;
63801;SDS011;49949;43.060;25.624;2022-07-17T06:54:32;45.85;;;3.05;;
63801;SDS011;49949;43.060;25.624;2022-07-17T06:56:58;13.40;;;2.47;;
63801;SDS011;49949;43.060;25.624;2022-07-17T06:59:23;211.48;;;11.23;;
63801;SDS011;49949;43.060;25.624;2022-07-17T07:01:49;78.65;;;5.95;;
63801;SDS011;49949;43.060;25.624;2022-07-17T07:04:15;12.57;;;2.00;;
63801;SDS011;49949;43.060;25.624;2022-07-17T07:06:41;17.27;;;2.78;;
63801;SDS011;49949;43.060;25.624;2022-07-17T07:09:07;38.67;;;3.25;;
63801;SDS011;49949;43.060;25.624;2022-07-17T07:11:32;49.25;;;4.72;;
63801;SDS011;49949;43.060;25.624;2022-07-17T07:13:58;124.18;;;9.63;;
63801;SDS011;49949;43.060;25.624;2022-07-17T07:16:24;12.05;;;2.28;;
63801;SDS011;49949;43.060;25.624;2022-07-17T07:18:50;15.95;;;2.72;;
63801;SDS011;49949;43.060;25.624;2022-07-17T07:21:16;13.52;;;2.33;;
63801;SDS011;49949;43.060;25.624;2022-07-17T07:23:41;6.45;;;2.13;;
63801;SDS011;49949;43.060;25.624;2022-07-17T07:26:07;17.25;;;2.65;;
63801;SDS011;49949;43.060;25.624;2022-07-17T07:28:33;15.88;;;2.35;;
63801;SDS011;49949;43.060;25.624;2022-07-17T07:30:59;26.73;;;2.78;;
63801;SDS011;49949;43.060;25.624;2022-07-17T07:33:25;24.38;;;3.30;;
63801;SDS011;49949;43.060;25.624;2022-07-17T07:35:50;11.43;;;2.20;;
63801;SDS011;49949;43.060;25.624;2022-07-17T07:38:16;5.18;;;1.65;;
63801;SDS011;49949;43.060;25.624;2022-07-17T07:40:42;12.30;;;2.45;;
63801;SDS011;49949;43.060;25.624;2022-07-17T07:43:08;23.00;;;2.95;;
63801;SDS011;49949;43.060;25.624;2022-07-17T07:45:33;10.45;;;2.35;;
63801;SDS011;49949;43.060;25.624;2022-07-17T07:47:59;17.77;;;2.13;;
63801;SDS011;49949;43.060;25.624;2022-07-17T07:50:25;5.50;;;1.95;;
63801;SDS011;49949;43.060;25.624;2022-07-17T07:52:53;10.63;;;2.30;;
63801;SDS011;49949;43.060;25.624;2022-07-17T07:55:19;3.45;;;2.10;;
63801;SDS011;49949;43.060;25.624;2022-07-17T07:57:46;2.17;;;1.98;;
63801;SDS011;49949;43.060;25.624;2022-07-17T08:00:25;9.07;;;2.38;;
63801;SDS011;49949;43.060;25.624;2022-07-17T08:02:51;9.00;;;2.47;;
63801;SDS011;49949;43.060;25.624;2022-07-17T08:05:17;9.43;;;2.05;;
63801;SDS011;49949;43.060;25.624;2022-07-17T08:07:42;8.57;;;1.88;;
63801;SDS011;49949;43.060;25.624;2022-07-17T08:10:08;19.98;;;3.00;;
63801;SDS011;49949;43.060;25.624;2022-07-17T08:12:34;4.78;;;2.08;;
63801;SDS011;49949;43.060;25.624;2022-07-17T08:14:59;4.68;;;1.80;;
63801;SDS011;49949;43.060;25.624;2022-07-17T08:17:25;3.00;;;2.08;;
63801;SDS011;49949;43.060;25.624;2022-07-17T08:19:51;3.60;;;1.92;;
63801;SDS011;49949;43.060;25.624;2022-07-17T08:22:16;8.25;;;2.13;;
63801;SDS011;49949;43.060;25.624;2022-07-17T08:24:42;123.30;;;7.60;;
63801;SDS011;49949;43.060;25.624;2022-07-17T08:27:08;5.65;;;2.10;;
63801;SDS011;49949;43.060;25.624;2022-07-17T08:29:34;4.35;;;1.73;;
63801;SDS011;49949;43.060;25.624;2022-07-17T08:31:59;8.90;;;1.85;;
63801;SDS011;49949;43.060;25.624;2022-07-17T08:34:25;4.72;;;1.90;;
63801;SDS011;49949;43.060;25.624;2022-07-17T08:36:51;2.30;;;1.40;;
63801;SDS011;49949;43.060;25.624;2022-07-17T08:39:17;4.35;;;1.60;;
63801;SDS011;49949;43.060;25.624;2022-07-17T08:41:42;20.13;;;2.20;;
63801;SDS011;49949;43.060;25.624;2022-07-17T08:44:08;3.20;;;1.70;;
63801;SDS011;49949;43.060;25.624;2022-07-17T08:46:38;3.47;;;1.40;;
63801;SDS011;49949;43.060;25.624;2022-07-17T08:49:05;2.60;;;1.58;;
63801;SDS011;49949;43.060;25.624;2022-07-17T08:51:32;6.78;;;1.30;;
63801;SDS011;49949;43.060;25.624;2022-07-17T08:53:58;5.88;;;1.30;;
63801;SDS011;49949;43.060;25.624;2022-07-17T08:56:25;7.57;;;1.65;;
63801;SDS011;49949;43.060;25.624;2022-07-17T08:58:52;4.38;;;1.40;;
63801;SDS011;49949;43.060;25.624;2022-07-17T09:01:18;2.47;;;1.67;;
63801;SDS011;49949;43.060;25.624;2022-07-17T09:04:02;11.82;;;2.03;;
63801;SDS011;49949;43.060;25.624;2022-07-17T09:06:33;3.60;;;1.60;;
63801;SDS011;49949;43.060;25.624;2022-07-17T09:09:07;5.22;;;1.63;;
63801;SDS011;49949;43.060;25.624;2022-07-17T09:11:47;28.67;;;3.13;;
63801;SDS011;49949;43.060;25.624;2022-07-17T09:14:15;2.97;;;1.50;;
63801;SDS011;49949;43.060;25.624;2022-07-17T09:16:52;4.65;;;1.60;;
63801;SDS011;49949;43.060;25.624;2022-07-17T09:19:28;8.48;;;1.75;;
63801;SDS011;49949;43.060;25.624;2022-07-17T09:24:46;4.07;;;1.90;;
63801;SDS011;49949;43.060;25.624;2022-07-17T09:32:36;2.58;;;1.77;;
63801;SDS011;49949;43.060;25.624;2022-07-17T09:35:06;9.25;;;1.98;;
63801;SDS011;49949;43.060;25.624;2022-07-17T09:37:34;11.00;;;1.85;;
63801;SDS011;49949;43.060;25.624;2022-07-17T09:40:02;17.95;;;2.15;;
63801;SDS011;49949;43.060;25.624;2022-07-17T09:42:34;27.63;;;2.25;;
63801;SDS011;49949;43.060;25.624;2022-07-17T09:45:07;8.13;;;2.08;;
63801;SDS011;49949;43.060;25.624;2022-07-17T09:47:36;8.88;;;1.80;;
63801;SDS011;49949;43.060;25.624;2022-07-17T09:50:03;91.25;;;5.18;;
63801;SDS011;49949;43.060;25.624;2022-07-17T09:52:32;120.40;;;8.38;;
63801;SDS011;49949;43.060;25.624;2022-07-17T09:54:59;146.05;;;7.88;;
63801;SDS011;49949;43.060;25.624;2022-07-17T09:57:30;12.93;;;2.13;;
63801;SDS011;49949;43.060;25.624;2022-07-17T10:00:01;52.72;;;6.35;;
63801;SDS011;49949;43.060;25.624;2022-07-17T10:02:37;7.63;;;1.60;;
63801;SDS011;49949;43.060;25.624;2022-07-17T10:05:07;4.38;;;1.63;;
63801;SDS011;49949;43.060;25.624;2022-07-17T10:07:37;90.50;;;5.97;;
63801;SDS011;49949;43.060;25.624;2022-07-17T10:10:06;4.40;;;1.70;;
63801;SDS011;49949;43.060;25.624;2022-07-17T10:12:33;3.22;;;1.35;;
63801;SDS011;49949;43.060;25.624;2022-07-17T10:15:00;6.22;;;1.85;;
63801;SDS011;49949;43.060;25.624;2022-07-17T10:17:26;5.22;;;1.80;;
63801;SDS011;49949;43.060;25.624;2022-07-17T10:19:54;8.32;;;1.83;;
63801;SDS011;49949;43.060;25.624;2022-07-17T10:22:21;3.03;;;1.50;;
63801;SDS011;49949;43.060;25.624;2022-07-17T10:24:48;9.40;;;2.05;;
63801;SDS011;49949;43.060;25.624;2022-07-17T10:27:18;25.52;;;3.00;;
63801;SDS011;49949;43.060;25.624;2022-07-17T10:29:43;69.78;;;4.10;;
63801;SDS011;49949;43.060;25.624;2022-07-17T10:32:16;36.63;;;2.95;;
63801;SDS011;49949;43.060;25.624;2022-07-17T10:50:24;3.95;;;1.50;;
63801;SDS011;49949;43.060;25.624;2022-07-17T10:53:04;40.65;;;4.03;;
63801;SDS011;49949;43.060;25.624;2022-07-17T10:55:32;17.98;;;2.58;;
63801;SDS011;49949;43.060;25.624;2022-07-17T10:57:59;4.47;;;1.50;;
63801;SDS011;49949;43.060;25.624;2022-07-17T11:00:25;6.47;;;1.63;;
63801;SDS011;49949;43.060;25.624;2022-07-17T11:02:51;2.65;;;1.63;;
63801;SDS011;49949;43.060;25.624;2022-07-17T11:05:17;3.58;;;1.77;;
63801;SDS011;49949;43.060;25.624;2022-07-17T11:10:14;46.42;;;3.20;;
63801;SDS011;49949;43.060;25.624;2022-07-17T11:12:41;8.30;;;1.90;;
63801;SDS011;49949;43.060;25.624;2022-07-17T11:15:07;77.90;;;5.18;;
63801;SDS011;49949;43.060;25.624;2022-07-17T11:17:33;14.45;;;2.40;;
63801;SDS011;49949;43.060;25.624;2022-07-17T11:19:59;4.05;;;1.90;;
63801;SDS011;49949;43.060;25.624;2022-07-17T11:22:25;4.13;;;1.48;;
63801;SDS011;49949;43.060;25.624;2022-07-17T11:24:52;10.52;;;1.35;;
63801;SDS011;49949;43.060;25.624;2022-07-17T11:27:27;8.98;;;1.75;;
63801;SDS011;49949;43.060;25.624;2022-07-17T11:29:55;15.23;;;2.33;;
63801;SDS011;49949;43.060;25.624;2022-07-17T11:32:22;3.30;;;1.45;;
63801;SDS011;49949;43.060;25.624;2022-07-17T11:34:50;6.05;;;1.55;;
63801;SDS011;49949;43.060;25.624;2022-07-17T11:37:16;8.05;;;1.88;;
63801;SDS011;49949;43.060;25.624;2022-07-17T11:39:49;5.05;;;1.75;;
63801;SDS011;49949;43.060;25.624;2022-07-17T11:42:19;3.08;;;1.23;;
63801;SDS011;49949;43.060;25.624;2022-07-17T11:44:49;2.58;;;1.60;;
63801;SDS011;49949;43.060;25.624;2022-07-17T11:47:21;7.22;;;1.75;;
63801;SDS011;49949;43.060;25.624;2022-07-17T11:49:48;2.53;;;1.60;;
63801;SDS011;49949;43.060;25.624;2022-07-17T11:52:14;8.45;;;1.60;;
63801;SDS011;49949;43.060;25.624;2022-07-17T11:54:51;5.43;;;1.60;;
63801;SDS011;49949;43.060;25.624;2022-07-17T11:57:26;4.47;;;1.40;;
63801;SDS011;49949;43.060;25.624;2022-07-17T11:59:52;13.18;;;2.10;;
63801;SDS011;49949;43.060;25.624;2022-07-17T12:02:20;10.50;;;1.80;;
63801;SDS011;49949;43.060;25.624;2022-07-17T12:04:58;14.13;;;2.05;;
63801;SDS011;49949;43.060;25.624;2022-07-17T12:07:37;110.10;;;6.28;;
63801;SDS011;49949;43.060;25.624;2022-07-17T12:10:14;383.13;;;19.40;;
63801;SDS011;49949;43.060;25.624;2022-07-17T12:12:56;41.00;;;3.20;;
63801;SDS011;49949;43.060;25.624;2022-07-17T12:18:00;20.35;;;2.63;;
63801;SDS011;49949;43.060;25.624;2022-07-17T12:20:26;5.25;;;1.50;;
63801;SDS011;49949;43.060;25.624;2022-07-17T12:23:06;4.60;;;1.45;;
63801;SDS011;49949;43.060;25.624;2022-07-17T12:25:31;3.10;;;1.92;;
63801;SDS011;49949;43.060;25.624;2022-07-17T12:27:57;11.98;;;2.03;;
63801;SDS011;49949;43.060;25.624;2022-07-17T12:30:23;10.05;;;1.88;;
63801;SDS011;49949;43.060;25.624;2022-07-17T12:32:48;4.05;;;1.90;;
63801;SDS011;49949;43.060;25.624;2022-07-17T12:35:14;4.60;;;1.95;;
63801;SDS011;49949;43.060;25.624;2022-07-17T12:37:40;5.75;;;1.80;;
63801;SDS011;49949;43.060;25.624;2022-07-17T12:40:07;5.05;;;1.67;;
63801;SDS011;49949;43.060;25.624;2022-07-17T12:42:33;8.60;;;1.70;;
63801;SDS011;49949;43.060;25.624;2022-07-17T12:44:59;3.65;;;1.80;;
63801;SDS011;49949;43.060;25.624;2022-07-17T12:47:24;2.10;;;1.20;;
63801;SDS011;49949;43.060;25.624;2022-07-17T12:49:50;3.45;;;1.70;;
63801;SDS011;49949;43.060;25.624;2022-07-17T12:52:16;7.13;;;2.00;;
63801;SDS011;49949;43.060;25.624;2022-07-17T12:54:41;5.13;;;2.25;;
63801;SDS011;49949;43.060;25.624;2022-07-17T12:57:07;6.30;;;2.33;;
63801;SDS011;49949;43.060;25.624;2022-07-17T12:59:33;5.90;;;2.30;;
63801;SDS011;49949;43.060;25.624;2022-07-17T13:01:59;6.10;;;2.00;;
63801;SDS011;49949;43.060;25.624;2022-07-17T13:04:25;10.18;;;2.17;;
63801;SDS011;49949;43.060;25.624;2022-07-17T13:06:52;5.57;;;2.55;;
63801;SDS011;49949;43.060;25.624;2022-07-17T13:09:17;130.23;;;9.57;;
63801;SDS011;49949;43.060;25.624;2022-07-17T13:11:43;7.88;;;2.40;;
63801;SDS011;49949;43.060;25.624;2022-07-17T13:14:09;4.50;;;2.88;;
63801;SDS011;49949;43.060;25.624;2022-07-17T13:16:39;5.68;;;2.65;;
63801;SDS011;49949;43.060;25.624;2022-07-17T13:19:05;232.82;;;12.40;;
63801;SDS011;49949;43.060;25.624;2022-07-17T13:21:31;8.00;;;2.80;;
63801;SDS011;49949;43.060;25.624;2022-07-17T13:23:57;6.70;;;2.65;;
63801;SDS011;49949;43.060;25.624;2022-07-17T13:26:23;2.53;;;2.30;;
63801;SDS011;49949;43.060;25.624;2022-07-17T13:28:49;14.38;;;4.22;;
63801;SDS011;49949;43.060;25.624;2022-07-17T13:31:15;49.58;;;4.53;;
63801;SDS011;49949;43.060;25.624;2022-07-17T13:33:41;11.07;;;3.88;;
63801;SDS011;49949;43.060;25.624;2022-07-17T13:36:07;37.42;;;4.55;;
63801;SDS011;49949;43.060;25.624;2022-07-17T13:38:32;14.60;;;3.70;;
63801;SDS011;49949;43.060;25.624;2022-07-17T13:40:58;16.38;;;2.60;;
63801;SDS011;49949;43.060;25.624;2022-07-17T13:43:24;9.38;;;2.58;;
63801;SDS011;49949;43.060;25.624;2022-07-17T13:45:50;14.52;;;2.58;;
63801;SDS011;49949;43.060;25.624;2022-07-17T13:48:15;33.88;;;4.50;;
63801;SDS011;49949;43.060;25.624;2022-07-17T13:50:41;11.48;;;2.50;;
63801;SDS011;49949;43.060;25.624;2022-07-17T13:53:07;25.50;;;3.15;;
63801;SDS011;49949;43.060;25.624;2022-07-17T13:55:33;90.25;;;9.07;;
63801;SDS011;49949;43.060;25.624;2022-07-17T13:57:59;17.67;;;2.15;;
63801;SDS011;49949;43.060;25.624;2022-07-17T14:00:25;9.38;;;2.30;;
63801;SDS011;49949;43.060;25.624;2022-07-17T14:02:50;35.45;;;3.13;;
63801;SDS011;49949;43.060;25.624;2022-07-17T14:05:16;19.48;;;2.72;;
63801;SDS011;49949;43.060;25.624;2022-07-17T14:07:42;27.27;;;2.78;;
63801;SDS011;49949;43.060;25.624;2022-07-17T14:10:08;5.97;;;1.85;;
63801;SDS011;49949;43.060;25.624;2022-07-17T14:12:35;51.45;;;4.60;;
63801;SDS011;49949;43.060;25.624;2022-07-17T14:15:01;46.97;;;4.18;;
63801;SDS011;49949;43.060;25.624;2022-07-17T14:17:27;6.07;;;2.30;;
63801;SDS011;49949;43.060;25.624;2022-07-17T14:19:53;37.50;;;4.60;;
63801;SDS011;49949;43.060;25.624;2022-07-17T14:22:19;133.48;;;12.55;;
63801;SDS011;49949;43.060;25.624;2022-07-17T14:24:45;143.15;;;11.75;;
63801;SDS011;49949;43.060;25.624;2022-07-17T14:27:10;37.40;;;4.13;;
63801;SDS011;49949;43.060;25.624;2022-07-17T14:29:36;28.83;;;5.97;;
63801;SDS011;49949;43.060;25.624;2022-07-17T14:32:02;19.25;;;5.30;;
63801;SDS011;49949;43.060;25.624;2022-07-17T14:34:27;298.63;;;18.88;;
63801;SDS011;49949;43.060;25.624;2022-07-17T14:36:53;26.10;;;3.25;;
63801;SDS011;49949;43.060;25.624;2022-07-17T14:39:19;45.40;;;5.70;;
63801;SDS011;49949;43.060;25.624;2022-07-17T14:41:45;5.60;;;2.55;;
63801;SDS011;49949;43.060;25.624;2022-07-17T14:44:11;9.20;;;2.38;;
63801;SDS011;49949;43.060;25.624;2022-07-17T14:46:37;12.27;;;2.50;;
63801;SDS011;49949;43.060;25.624;2022-07-17T14:49:02;477.35;;;27.90;;